Terminal Aerodrome Forecast
Issued by NWS

Home | Current Version | Previous Version | Text Only | Print | Product List | Glossary On
Versions: 1 2 3 4 5 6 7 8 9 10 11 12 13 14 15 16 17 18 19 20 21 22 23 24 25 26 27 28 29 30 31 32 33 34
090
FTUS43 KSGF 302333
TAFJLN
TAF
KJLN 302333Z 0100/0124 19016G24KT P6SM VCSH OVC060
     FM010300 21017G25KT P6SM VCSH OVC030
     FM010500 23017KT P6SM OVC015
     FM011300 26016G25KT P6SM BKN020
     FM011600 26017G29KT P6SM BKN040
     FM011700 27018G30KT P6SM SCT060=

USA.gov is the U.S. government's official web portal to all federal, state and local government web resources and services.